sensor_id;sensor_type;location;lat;lon;timestamp;pressure;altitude;pressure_sealevel;temperature;humidity
6204;BME280;3135;42.602;23.468;2023-02-12T00:01:34;93883.75;;;-2.30;98.17
6204;BME280;3135;42.602;23.468;2023-02-12T00:04:00;93880.97;;;-2.43;99.66
6204;BME280;3135;42.602;23.468;2023-02-12T00:06:26;93877.88;;;-2.32;98.93
6204;BME280;3135;42.602;23.468;2023-02-12T00:08:52;93889.66;;;-2.21;98.62
6204;BME280;3135;42.602;23.468;2023-02-12T00:11:21;93886.69;;;-2.18;99.57
6204;BME280;3135;42.602;23.468;2023-02-12T00:13:47;93880.19;;;-2.22;98.21
6204;BME280;3135;42.602;23.468;2023-02-12T00:16:15;93898.22;;;-2.13;99.00
6204;BME280;3135;42.602;23.468;2023-02-12T00:18:41;93890.84;;;-2.24;99.70
6204;BME280;3135;42.602;23.468;2023-02-12T00:21:07;93874.25;;;-2.31;100.00
6204;BME280;3135;42.602;23.468;2023-02-12T00:23:36;93909.94;;;-2.09;99.88
6204;BME280;3135;42.602;23.468;2023-02-12T00:26:07;93882.19;;;-2.24;100.00
6204;BME280;3135;42.602;23.468;2023-02-12T00:28:33;93884.16;;;-2.26;100.00
6204;BME280;3135;42.602;23.468;2023-02-12T00:31:10;93880.75;;;-2.27;100.00
6204;BME280;3135;42.602;23.468;2023-02-12T00:33:36;93880.38;;;-2.24;100.00
6204;BME280;3135;42.602;23.468;2023-02-12T00:36:02;93879.13;;;-2.28;100.00
6204;BME280;3135;42.602;23.468;2023-02-12T00:38:28;93885.88;;;-2.19;100.00
6204;BME280;3135;42.602;23.468;2023-02-12T00:40:53;93877.41;;;-2.21;100.00
6204;BME280;3135;42.602;23.468;2023-02-12T00:43:19;93873.03;;;-2.14;100.00
6204;BME280;3135;42.602;23.468;2023-02-12T00:45:45;93861.34;;;-2.33;100.00
6204;BME280;3135;42.602;23.468;2023-02-12T00:48:11;93860.00;;;-2.28;100.00
6204;BME280;3135;42.602;23.468;2023-02-12T00:50:36;93859.06;;;-2.21;100.00
6204;BME280;3135;42.602;23.468;2023-02-12T00:53:02;93852.06;;;-2.35;100.00
6204;BME280;3135;42.602;23.468;2023-02-12T00:55:27;93866.72;;;-2.19;100.00
6204;BME280;3135;42.602;23.468;2023-02-12T00:57:53;93841.16;;;-2.39;100.00
6204;BME280;3135;42.602;23.468;2023-02-12T01:00:18;93854.44;;;-2.19;99.71
6204;BME280;3135;42.602;23.468;2023-02-12T01:02:44;93829.72;;;-2.16;100.00
6204;BME280;3135;42.602;23.468;2023-02-12T01:05:09;93835.50;;;-2.21;100.00
6204;BME280;3135;42.602;23.468;2023-02-12T01:07:35;93829.06;;;-2.54;100.00
6204;BME280;3135;42.602;23.468;2023-02-12T01:10:04;93816.25;;;-2.49;100.00
6204;BME280;3135;42.602;23.468;2023-02-12T01:12:29;93818.88;;;-2.49;100.00
6204;BME280;3135;42.602;23.468;2023-02-12T01:14:55;93844.63;;;-2.53;100.00
6204;BME280;3135;42.602;23.468;2023-02-12T01:17:40;93830.47;;;-2.59;100.00
6204;BME280;3135;42.602;23.468;2023-02-12T01:20:07;93849.63;;;-2.37;100.00
6204;BME280;3135;42.602;23.468;2023-02-12T01:22:34;93842.91;;;-2.61;100.00
6204;BME280;3135;42.602;23.468;2023-02-12T01:25:01;93847.78;;;-2.58;100.00
6204;BME280;3135;42.602;23.468;2023-02-12T01:27:26;93845.19;;;-2.36;100.00
6204;BME280;3135;42.602;23.468;2023-02-12T01:29:52;93848.09;;;-2.46;100.00
6204;BME280;3135;42.602;23.468;2023-02-12T01:32:17;93863.09;;;-2.54;100.00
6204;BME280;3135;42.602;23.468;2023-02-12T01:34:43;93835.31;;;-2.55;100.00
6204;BME280;3135;42.602;23.468;2023-02-12T01:37:08;93842.31;;;-2.77;100.00
6204;BME280;3135;42.602;23.468;2023-02-12T01:39:34;93848.78;;;-2.59;100.00
6204;BME280;3135;42.602;23.468;2023-02-12T01:42:00;93818.63;;;-2.69;100.00
6204;BME280;3135;42.602;23.468;2023-02-12T01:44:28;93828.50;;;-2.71;100.00
6204;BME280;3135;42.602;23.468;2023-02-12T01:46:58;93831.56;;;-2.68;100.00
6204;BME280;3135;42.602;23.468;2023-02-12T01:49:42;93835.00;;;-2.82;100.00
6204;BME280;3135;42.602;23.468;2023-02-12T01:52:21;93828.06;;;-2.90;100.00
6204;BME280;3135;42.602;23.468;2023-02-12T01:54:50;93808.22;;;-3.14;100.00
6204;BME280;3135;42.602;23.468;2023-02-12T01:57:17;93798.41;;;-3.26;100.00
6204;BME280;3135;42.602;23.468;2023-02-12T01:59:44;93805.63;;;-3.14;100.00
6204;BME280;3135;42.602;23.468;2023-02-12T02:02:12;93792.09;;;-3.32;100.00
6204;BME280;3135;42.602;23.468;2023-02-12T02:04:51;93816.13;;;-2.92;100.00
6204;BME280;3135;42.602;23.468;2023-02-12T02:07:18;93800.84;;;-3.10;100.00
6204;BME280;3135;42.602;23.468;2023-02-12T02:09:43;93790.47;;;-3.33;100.00
6204;BME280;3135;42.602;23.468;2023-02-12T02:12:09;93804.69;;;-3.21;100.00
6204;BME280;3135;42.602;23.468;2023-02-12T02:14:56;93760.81;;;-3.55;100.00
6204;BME280;3135;42.602;23.468;2023-02-12T02:17:43;93807.78;;;-3.32;100.00
6204;BME280;3135;42.602;23.468;2023-02-12T02:20:35;93814.16;;;-3.35;100.00
6204;BME280;3135;42.602;23.468;2023-02-12T02:27:01;93818.16;;;-3.09;100.00
6204;BME280;3135;42.602;23.468;2023-02-12T02:32:38;93802.06;;;-3.06;100.00
6204;BME280;3135;42.602;23.468;2023-02-12T02:37:59;93796.59;;;-2.96;100.00
6204;BME280;3135;42.602;23.468;2023-02-12T02:43:25;93807.94;;;-2.89;100.00
6204;BME280;3135;42.602;23.468;2023-02-12T02:46:01;93806.84;;;-2.80;100.00
6204;BME280;3135;42.602;23.468;2023-02-12T02:48:45;93809.56;;;-2.88;100.00
6204;BME280;3135;42.602;23.468;2023-02-12T02:51:24;93811.47;;;-2.82;100.00
6204;BME280;3135;42.602;23.468;2023-02-12T02:53:57;93832.06;;;-2.58;100.00
6204;BME280;3135;42.602;23.468;2023-02-12T02:56:25;93830.16;;;-2.49;100.00
6204;BME280;3135;42.602;23.468;2023-02-12T02:59:12;93834.00;;;-2.30;100.00
6204;BME280;3135;42.602;23.468;2023-02-12T03:01:49;93823.88;;;-2.33;100.00
6204;BME280;3135;42.602;23.468;2023-02-12T03:04:20;93837.28;;;-2.43;100.00
6204;BME280;3135;42.602;23.468;2023-02-12T03:07:02;93830.75;;;-2.32;100.00
6204;BME280;3135;42.602;23.468;2023-02-12T03:09:37;93803.06;;;-2.41;100.00
6204;BME280;3135;42.602;23.468;2023-02-12T03:12:09;93823.63;;;-2.38;100.00
6204;BME280;3135;42.602;23.468;2023-02-12T03:14:45;93808.78;;;-2.31;100.00
6204;BME280;3135;42.602;23.468;2023-02-12T03:17:24;93820.22;;;-2.39;100.00
6204;BME280;3135;42.602;23.468;2023-02-12T03:19:59;93809.28;;;-2.42;100.00
6204;BME280;3135;42.602;23.468;2023-02-12T03:22:32;93794.97;;;-2.25;100.00
6204;BME280;3135;42.602;23.468;2023-02-12T03:25:14;93818.66;;;-2.33;100.00
6204;BME280;3135;42.602;23.468;2023-02-12T03:28:08;93806.69;;;-2.42;100.00
6204;BME280;3135;42.602;23.468;2023-02-12T03:30:41;93812.31;;;-2.24;100.00
6204;BME280;3135;42.602;23.468;2023-02-12T03:35:41;93812.75;;;-2.20;100.00
6204;BME280;3135;42.602;23.468;2023-02-12T03:38:44;93778.28;;;-2.24;100.00
6204;BME280;3135;42.602;23.468;2023-02-12T03:41:14;93807.91;;;-2.02;100.00
6204;BME280;3135;42.602;23.468;2023-02-12T03:46:34;93793.97;;;-2.02;100.00
6204;BME280;3135;42.602;23.468;2023-02-12T03:49:22;93769.41;;;-2.44;100.00
6204;BME280;3135;42.602;23.468;2023-02-12T03:51:49;93789.09;;;-2.48;100.00
6204;BME280;3135;42.602;23.468;2023-02-12T03:54:17;93803.69;;;-2.39;100.00
6204;BME280;3135;42.602;23.468;2023-02-12T03:59:14;93809.19;;;-2.13;100.00
6204;BME280;3135;42.602;23.468;2023-02-12T04:01:40;93802.78;;;-2.10;100.00
6204;BME280;3135;42.602;23.468;2023-02-12T04:04:07;93806.81;;;-2.08;100.00
6204;BME280;3135;42.602;23.468;2023-02-12T04:06:33;93783.75;;;-2.19;100.00
6204;BME280;3135;42.602;23.468;2023-02-12T04:09:08;93803.28;;;-2.00;100.00
6204;BME280;3135;42.602;23.468;2023-02-12T04:23:03;93804.38;;;-2.09;100.00
6204;BME280;3135;42.602;23.468;2023-02-12T04:26:08;93820.41;;;-2.19;100.00
6204;BME280;3135;42.602;23.468;2023-02-12T04:33:59;93809.03;;;-2.11;100.00
6204;BME280;3135;42.602;23.468;2023-02-12T04:36:33;93815.34;;;-1.99;100.00
6204;BME280;3135;42.602;23.468;2023-02-12T04:39:03;93819.84;;;-2.14;100.00
6204;BME280;3135;42.602;23.468;2023-02-12T04:41:31;93818.28;;;-2.09;100.00
6204;BME280;3135;42.602;23.468;2023-02-12T04:43:57;93815.22;;;-2.12;100.00
6204;BME280;3135;42.602;23.468;2023-02-12T04:46:22;93811.06;;;-2.28;100.00
6204;BME280;3135;42.602;23.468;2023-02-12T04:48:53;93830.13;;;-2.34;100.00
6204;BME280;3135;42.602;23.468;2023-02-12T04:51:20;93820.97;;;-2.23;100.00
6204;BME280;3135;42.602;23.468;2023-02-12T04:53:45;93826.00;;;-2.22;100.00
6204;BME280;3135;42.602;23.468;2023-02-12T04:56:12;93829.13;;;-2.33;100.00
6204;BME280;3135;42.602;23.468;2023-02-12T04:58:38;93827.16;;;-2.10;100.00
6204;BME280;3135;42.602;23.468;2023-02-12T05:01:04;93836.72;;;-2.02;100.00
6204;BME280;3135;42.602;23.468;2023-02-12T05:03:29;93799.81;;;-2.22;100.00
6204;BME280;3135;42.602;23.468;2023-02-12T05:05:55;93799.53;;;-2.34;100.00
6204;BME280;3135;42.602;23.468;2023-02-12T05:08:20;93832.59;;;-2.11;100.00
6204;BME280;3135;42.602;23.468;2023-02-12T05:10:46;93812.44;;;-2.11;100.00
6204;BME280;3135;42.602;23.468;2023-02-12T05:13:11;93811.19;;;-2.15;100.00
6204;BME280;3135;42.602;23.468;2023-02-12T05:15:39;93816.06;;;-2.12;100.00
6204;BME280;3135;42.602;23.468;2023-02-12T05:18:05;93812.34;;;-2.17;100.00
6204;BME280;3135;42.602;23.468;2023-02-12T05:20:30;93807.25;;;-2.04;100.00
6204;BME280;3135;42.602;23.468;2023-02-12T05:22:55;93816.56;;;-2.01;100.00
6204;BME280;3135;42.602;23.468;2023-02-12T05:25:21;93837.56;;;-1.95;100.00
6204;BME280;3135;42.602;23.468;2023-02-12T05:27:47;93830.28;;;-1.78;100.00
6204;BME280;3135;42.602;23.468;2023-02-12T05:30:12;93835.81;;;-1.66;100.00
6204;BME280;3135;42.602;23.468;2023-02-12T05:32:38;93823.84;;;-1.97;100.00
6204;BME280;3135;42.602;23.468;2023-02-12T05:35:04;93835.50;;;-1.99;100.00
6204;BME280;3135;42.602;23.468;2023-02-12T05:37:29;93853.09;;;-2.15;100.00
6204;BME280;3135;42.602;23.468;2023-02-12T05:39:55;93870.66;;;-2.09;100.00
6204;BME280;3135;42.602;23.468;2023-02-12T05:42:21;93849.72;;;-2.30;100.00
6204;BME280;3135;42.602;23.468;2023-02-12T05:44:46;93870.91;;;-2.25;100.00
6204;BME280;3135;42.602;23.468;2023-02-12T05:47:12;93864.22;;;-2.27;100.00
6204;BME280;3135;42.602;23.468;2023-02-12T05:49:37;93883.22;;;-2.04;100.00
6204;BME280;3135;42.602;23.468;2023-02-12T05:52:03;93848.97;;;-2.24;100.00
6204;BME280;3135;42.602;23.468;2023-02-12T05:54:28;93877.34;;;-2.06;100.00
6204;BME280;3135;42.602;23.468;2023-02-12T05:56:53;93880.13;;;-1.93;100.00
6204;BME280;3135;42.602;23.468;2023-02-12T05:59:21;93868.44;;;-1.90;100.00
6204;BME280;3135;42.602;23.468;2023-02-12T06:01:48;93875.38;;;-1.83;100.00
6204;BME280;3135;42.602;23.468;2023-02-12T06:04:17;93861.28;;;-1.82;100.00
6204;BME280;3135;42.602;23.468;2023-02-12T06:06:43;93869.50;;;-1.85;100.00
6204;BME280;3135;42.602;23.468;2023-02-12T06:09:09;93873.78;;;-1.98;100.00
6204;BME280;3135;42.602;23.468;2023-02-12T06:11:36;93872.19;;;-1.99;100.00
6204;BME280;3135;42.602;23.468;2023-02-12T06:14:06;93869.91;;;-2.02;100.00
6204;BME280;3135;42.602;23.468;2023-02-12T06:16:32;93888.03;;;-1.86;100.00
6204;BME280;3135;42.602;23.468;2023-02-12T06:19:00;93877.44;;;-1.78;100.00
6204;BME280;3135;42.602;23.468;2023-02-12T06:21:26;93876.78;;;-1.80;100.00
6204;BME280;3135;42.602;23.468;2023-02-12T06:23:52;93886.03;;;-1.84;100.00
6204;BME280;3135;42.602;23.468;2023-02-12T06:26:18;93871.13;;;-1.84;100.00
6204;BME280;3135;42.602;23.468;2023-02-12T06:28:44;93884.59;;;-1.65;100.00
6204;BME280;3135;42.602;23.468;2023-02-12T06:31:23;93877.69;;;-1.73;100.00
6204;BME280;3135;42.602;23.468;2023-02-12T06:33:49;93872.06;;;-1.70;100.00
6204;BME280;3135;42.602;23.468;2023-02-12T06:36:16;93882.69;;;-1.78;100.00
6204;BME280;3135;42.602;23.468;2023-02-12T06:38:42;93883.25;;;-1.83;100.00
6204;BME280;3135;42.602;23.468;2023-02-12T06:41:08;93871.25;;;-1.92;100.00
6204;BME280;3135;42.602;23.468;2023-02-12T06:43:33;93890.59;;;-1.71;100.00
6204;BME280;3135;42.602;23.468;2023-02-12T06:45:59;93876.25;;;-1.97;100.00
6204;BME280;3135;42.602;23.468;2023-02-12T06:48:25;93884.53;;;-1.93;100.00
6204;BME280;3135;42.602;23.468;2023-02-12T06:50:51;93876.66;;;-1.93;100.00
6204;BME280;3135;42.602;23.468;2023-02-12T06:53:16;93877.66;;;-1.94;100.00
6204;BME280;3135;42.602;23.468;2023-02-12T06:55:41;93866.19;;;-1.93;100.00
6204;BME280;3135;42.602;23.468;2023-02-12T06:58:07;93895.13;;;-1.80;100.00
6204;BME280;3135;42.602;23.468;2023-02-12T07:00:32;93898.41;;;-1.78;100.00
6204;BME280;3135;42.602;23.468;2023-02-12T07:02:58;93882.34;;;-1.90;100.00
6204;BME280;3135;42.602;23.468;2023-02-12T07:05:23;93889.16;;;-1.74;100.00
6204;BME280;3135;42.602;23.468;2023-02-12T07:07:49;93891.41;;;-1.71;100.00
6204;BME280;3135;42.602;23.468;2023-02-12T07:10:15;93884.53;;;-1.72;100.00
6204;BME280;3135;42.602;23.468;2023-02-12T07:12:40;93876.47;;;-1.70;100.00
6204;BME280;3135;42.602;23.468;2023-02-12T07:15:06;93874.88;;;-1.71;100.00
6204;BME280;3135;42.602;23.468;2023-02-12T07:17:31;93896.28;;;-1.68;100.00
6204;BME280;3135;42.602;23.468;2023-02-12T07:19:57;93877.91;;;-1.89;100.00
6204;BME280;3135;42.602;23.468;2023-02-12T07:22:22;93888.47;;;-1.83;100.00
6204;BME280;3135;42.602;23.468;2023-02-12T07:24:48;93894.53;;;-1.82;100.00
6204;BME280;3135;42.602;23.468;2023-02-12T07:27:13;93896.13;;;-1.81;100.00
6204;BME280;3135;42.602;23.468;2023-02-12T07:29:39;93904.91;;;-1.74;100.00
6204;BME280;3135;42.602;23.468;2023-02-12T07:32:04;93886.25;;;-1.64;100.00
6204;BME280;3135;42.602;23.468;2023-02-12T07:34:30;93890.22;;;-1.68;100.00
6204;BME280;3135;42.602;23.468;2023-02-12T07:36:56;93900.22;;;-1.78;100.00
6204;BME280;3135;42.602;23.468;2023-02-12T07:39:21;93893.78;;;-1.76;100.00
6204;BME280;3135;42.602;23.468;2023-02-12T07:41:47;93906.88;;;-1.55;100.00
6204;BME280;3135;42.602;23.468;2023-02-12T07:44:12;93891.97;;;-1.75;100.00
6204;BME280;3135;42.602;23.468;2023-02-12T07:46:44;93900.00;;;-1.77;100.00
6204;BME280;3135;42.602;23.468;2023-02-12T07:49:13;93899.25;;;-1.71;100.00
6204;BME280;3135;42.602;23.468;2023-02-12T07:51:39;93890.41;;;-1.70;100.00
6204;BME280;3135;42.602;23.468;2023-02-12T07:54:05;93905.75;;;-1.67;100.00
6204;BME280;3135;42.602;23.468;2023-02-12T07:56:32;93921.41;;;-1.52;100.00
6204;BME280;3135;42.602;23.468;2023-02-12T07:59:01;93887.84;;;-1.63;100.00
6204;BME280;3135;42.602;23.468;2023-02-12T08:01:30;93933.81;;;-1.61;100.00
6204;BME280;3135;42.602;23.468;2023-02-12T08:04:01;93905.16;;;-1.84;100.00
6204;BME280;3135;42.602;23.468;2023-02-12T08:06:28;93902.38;;;-1.82;100.00
6204;BME280;3135;42.602;23.468;2023-02-12T08:08:56;93932.81;;;-1.81;100.00
6204;BME280;3135;42.602;23.468;2023-02-12T08:11:23;93933.03;;;-1.61;100.00
6204;BME280;3135;42.602;23.468;2023-02-12T08:13:49;93925.84;;;-1.74;100.00
6204;BME280;3135;42.602;23.468;2023-02-12T08:16:17;93936.34;;;-1.74;100.00
6204;BME280;3135;42.602;23.468;2023-02-12T08:18:43;93925.16;;;-1.83;100.00
6204;BME280;3135;42.602;23.468;2023-02-12T08:21:11;93930.47;;;-1.55;100.00
6204;BME280;3135;42.602;23.468;2023-02-12T08:23:37;93931.75;;;-1.65;100.00
6204;BME280;3135;42.602;23.468;2023-02-12T08:26:14;93919.72;;;-1.81;100.00
6204;BME280;3135;42.602;23.468;2023-02-12T08:28:43;93935.31;;;-1.51;100.00
6204;BME280;3135;42.602;23.468;2023-02-12T08:31:14;93940.28;;;-1.63;100.00
6204;BME280;3135;42.602;23.468;2023-02-12T08:33:40;93920.88;;;-1.69;100.00
6204;BME280;3135;42.602;23.468;2023-02-12T08:36:08;93936.81;;;-1.42;100.00
6204;BME280;3135;42.602;23.468;2023-02-12T08:38:34;93939.94;;;-1.32;100.00
6204;BME280;3135;42.602;23.468;2023-02-12T08:41:05;93948.81;;;-1.33;100.00
6204;BME280;3135;42.602;23.468;2023-02-12T08:43:31;93947.50;;;-1.44;100.00
6204;BME280;3135;42.602;23.468;2023-02-12T08:46:11;93955.81;;;-1.40;100.00
6204;BME280;3135;42.602;23.468;2023-02-12T08:48:38;93945.31;;;-1.62;100.00
6204;BME280;3135;42.602;23.468;2023-02-12T08:51:05;93944.75;;;-1.57;100.00
6204;BME280;3135;42.602;23.468;2023-02-12T08:53:31;93944.19;;;-1.52;100.00
6204;BME280;3135;42.602;23.468;2023-02-12T08:55:57;93940.53;;;-1.58;100.00
6204;BME280;3135;42.602;23.468;2023-02-12T08:58:22;93945.88;;;-1.66;100.00
6204;BME280;3135;42.602;23.468;2023-02-12T09:00:47;93950.09;;;-1.50;100.00
6204;BME280;3135;42.602;23.468;2023-02-12T09:03:13;93945.25;;;-1.47;100.00
6204;BME280;3135;42.602;23.468;2023-02-12T09:05:39;93975.72;;;-1.46;100.00
6204;BME280;3135;42.602;23.468;2023-02-12T09:08:05;93960.41;;;-1.42;100.00
6204;BME280;3135;42.602;23.468;2023-02-12T09:10:30;93955.31;;;-1.29;100.00
6204;BME280;3135;42.602;23.468;2023-02-12T09:12:56;93962.16;;;-1.07;100.00
6204;BME280;3135;42.602;23.468;2023-02-12T09:15:21;93940.09;;;-1.40;100.00
6204;BME280;3135;42.602;23.468;2023-02-12T09:17:47;93948.09;;;-1.27;100.00
6204;BME280;3135;42.602;23.468;2023-02-12T09:20:12;93956.34;;;-1.23;100.00
6204;BME280;3135;42.602;23.468;2023-02-12T09:22:37;93951.00;;;-1.37;100.00
6204;BME280;3135;42.602;23.468;2023-02-12T09:25:06;93943.88;;;-1.21;100.00
6204;BME280;3135;42.602;23.468;2023-02-12T09:27:32;93961.56;;;-1.30;100.00
6204;BME280;3135;42.602;23.468;2023-02-12T09:29:57;93967.25;;;-1.26;100.00
6204;BME280;3135;42.602;23.468;2023-02-12T09:32:23;93973.91;;;-1.24;100.00
6204;BME280;3135;42.602;23.468;2023-02-12T09:34:48;93961.69;;;-1.17;100.00
6204;BME280;3135;42.602;23.468;2023-02-12T09:37:14;93969.66;;;-1.25;100.00
6204;BME280;3135;42.602;23.468;2023-02-12T09:39:39;93984.41;;;-1.02;100.00
6204;BME280;3135;42.602;23.468;2023-02-12T09:42:14;93984.78;;;-1.06;100.00
6204;BME280;3135;42.602;23.468;2023-02-12T09:45:06;93983.69;;;-0.90;100.00
6204;BME280;3135;42.602;23.468;2023-02-12T09:47:55;93984.13;;;-0.86;100.00
6204;BME280;3135;42.602;23.468;2023-02-12T09:50:33;93980.41;;;-0.98;100.00
6204;BME280;3135;42.602;23.468;2023-02-12T09:53:02;93975.31;;;-1.00;100.00
6204;BME280;3135;42.602;23.468;2023-02-12T09:55:30;93976.81;;;-0.91;100.00
6204;BME280;3135;42.602;23.468;2023-02-12T09:57:58;93969.75;;;-0.90;100.00
6204;BME280;3135;42.602;23.468;2023-02-12T10:00:27;93978.28;;;-0.54;100.00
6204;BME280;3135;42.602;23.468;2023-02-12T10:02:55;93972.72;;;-0.72;100.00
6204;BME280;3135;42.602;23.468;2023-02-12T10:05:26;93976.13;;;-0.78;100.00
6204;BME280;3135;42.602;23.468;2023-02-12T10:08:13;93985.03;;;-0.72;100.00
6204;BME280;3135;42.602;23.468;2023-02-12T10:26:52;93993.00;;;-0.31;100.00
6204;BME280;3135;42.602;23.468;2023-02-12T10:29:25;93993.47;;;-0.14;100.00
6204;BME280;3135;42.602;23.468;2023-02-12T10:32:09;93990.91;;;-0.42;100.00
6204;BME280;3135;42.602;23.468;2023-02-12T10:34:36;93971.69;;;-0.43;100.00
6204;BME280;3135;42.602;23.468;2023-02-12T10:37:17;93989.09;;;-0.01;100.00
6204;BME280;3135;42.602;23.468;2023-02-12T10:40:34;93973.28;;;-0.14;100.00
6204;BME280;3135;42.602;23.468;2023-02-12T10:42:38;93990.38;;;0.10;100.00
6204;BME280;3135;42.602;23.468;2023-02-12T10:45:05;93985.34;;;0.15;100.00
6204;BME280;3135;42.602;23.468;2023-02-12T10:47:30;93977.63;;;0.07;100.00
6204;BME280;3135;42.602;23.468;2023-02-12T10:50:01;93991.19;;;0.17;100.00
6204;BME280;3135;42.602;23.468;2023-02-12T10:52:40;93994.75;;;0.38;100.00
6204;BME280;3135;42.602;23.468;2023-02-12T10:55:38;93995.13;;;0.35;100.00
6204;BME280;3135;42.602;23.468;2023-02-12T10:58:04;93977.78;;;-0.01;100.00
6204;BME280;3135;42.602;23.468;2023-02-12T11:00:41;93980.72;;;0.24;100.00
6204;BME280;3135;42.602;23.468;2023-02-12T11:05:37;93989.13;;;0.61;100.00
6204;BME280;3135;42.602;23.468;2023-02-12T11:08:03;93989.31;;;0.66;100.00
6204;BME280;3135;42.602;23.468;2023-02-12T11:10:39;93978.59;;;0.61;100.00
6204;BME280;3135;42.602;23.468;2023-02-12T11:13:26;93969.03;;;0.33;100.00
6204;BME280;3135;42.602;23.468;2023-02-12T11:15:52;93965.38;;;0.34;100.00
6204;BME280;3135;42.602;23.468;2023-02-12T11:18:26;93990.56;;;0.70;100.00
6204;BME280;3135;42.602;23.468;2023-02-12T11:20:59;93985.50;;;0.62;100.00
6204;BME280;3135;42.602;23.468;2023-02-12T11:26:02;93976.59;;;0.63;100.00
6204;BME280;3135;42.602;23.468;2023-02-12T11:28:29;93968.28;;;0.53;100.00
6204;BME280;3135;42.602;23.468;2023-02-12T11:31:00;93977.41;;;0.70;100.00
6204;BME280;3135;42.602;23.468;2023-02-12T11:33:34;93978.25;;;0.90;100.00
6204;BME280;3135;42.602;23.468;2023-02-12T11:36:24;93984.50;;;0.89;100.00
6204;BME280;3135;42.602;23.468;2023-02-12T11:38:57;93969.56;;;0.90;100.00
6204;BME280;3135;42.602;23.468;2023-02-12T11:41:35;93992.44;;;0.96;100.00
6204;BME280;3135;42.602;23.468;2023-02-12T11:44:20;93972.81;;;1.05;100.00
6204;BME280;3135;42.602;23.468;2023-02-12T11:46:48;93991.84;;;1.27;100.00
6204;BME280;3135;42.602;23.468;2023-02-12T11:49:22;93991.03;;;1.07;100.00
6204;BME280;3135;42.602;23.468;2023-02-12T11:51:48;93974.81;;;0.96;100.00
6204;BME280;3135;42.602;23.468;2023-02-12T11:54:19;93992.03;;;1.12;100.00
6204;BME280;3135;42.602;23.468;2023-02-12T11:56:47;93977.47;;;1.10;100.00
6204;BME280;3135;42.602;23.468;2023-02-12T11:59:42;94001.56;;;1.07;100.00
6204;BME280;3135;42.602;23.468;2023-02-12T12:02:27;93984.13;;;0.92;100.00
6204;BME280;3135;42.602;23.468;2023-02-12T12:05:05;94007.19;;;0.84;100.00
6204;BME280;3135;42.602;23.468;2023-02-12T12:07:33;93972.78;;;0.72;100.00
6204;BME280;3135;42.602;23.468;2023-02-12T12:10:34;93995.03;;;0.76;100.00
6204;BME280;3135;42.602;23.468;2023-02-12T12:13:05;94001.91;;;0.84;100.00
6204;BME280;3135;42.602;23.468;2023-02-12T12:15:43;93996.63;;;0.70;100.00
6204;BME280;3135;42.602;23.468;2023-02-12T12:18:49;93997.22;;;0.66;100.00
6204;BME280;3135;42.602;23.468;2023-02-12T12:24:38;94002.72;;;0.71;100.00
6204;BME280;3135;42.602;23.468;2023-02-12T12:27:35;94009.78;;;0.70;100.00
6204;BME280;3135;42.602;23.468;2023-02-12T12:30:26;94001.28;;;0.75;100.00
6204;BME280;3135;42.602;23.468;2023-02-12T12:32:56;94010.47;;;1.06;100.00
6204;BME280;3135;42.602;23.468;2023-02-12T12:35:32;94022.19;;;1.03;100.00
6204;BME280;3135;42.602;23.468;2023-02-12T12:40:54;94027.38;;;0.70;100.00
6204;BME280;3135;42.602;23.468;2023-02-12T12:43:49;94024.63;;;0.91;100.00
6204;BME280;3135;42.602;23.468;2023-02-12T12:46:44;94031.09;;;0.95;100.00
6204;BME280;3135;42.602;23.468;2023-02-12T12:55:19;94023.81;;;0.91;100.00
6204;BME280;3135;42.602;23.468;2023-02-12T13:08:42;94027.91;;;1.13;100.00
6204;BME280;3135;42.602;23.468;2023-02-12T13:11:34;94035.59;;;1.15;100.00
6204;BME280;3135;42.602;23.468;2023-02-12T13:19:56;94041.84;;;1.07;100.00
6204;BME280;3135;42.602;23.468;2023-02-12T13:25:14;94012.81;;;0.67;100.00
6204;BME280;3135;42.602;23.468;2023-02-12T13:27:42;94025.56;;;0.70;100.00
6204;BME280;3135;42.602;23.468;2023-02-12T13:32:45;94035.09;;;0.85;100.00
6204;BME280;3135;42.602;23.468;2023-02-12T13:35:20;94048.91;;;0.80;100.00
6204;BME280;3135;42.602;23.468;2023-02-12T13:37:49;94035.06;;;0.65;100.00
6204;BME280;3135;42.602;23.468;2023-02-12T13:40:21;94069.53;;;0.83;100.00
6204;BME280;3135;42.602;23.468;2023-02-12T13:45:55;94050.94;;;0.98;100.00
6204;BME280;3135;42.602;23.468;2023-02-12T13:48:31;94042.66;;;0.94;100.00
6204;BME280;3135;42.602;23.468;2023-02-12T14:04:54;94072.81;;;0.98;100.00
6204;BME280;3135;42.602;23.468;2023-02-12T14:07:21;94048.84;;;0.67;100.00
6204;BME280;3135;42.602;23.468;2023-02-12T14:14:50;94074.38;;;0.80;100.00
6204;BME280;3135;42.602;23.468;2023-02-12T14:20:05;94089.75;;;0.76;100.00
6204;BME280;3135;42.602;23.468;2023-02-12T14:24:57;94074.94;;;0.68;100.00
6204;BME280;3135;42.602;23.468;2023-02-12T14:30:24;94102.34;;;0.87;100.00
6204;BME280;3135;42.602;23.468;2023-02-12T14:35:47;94080.00;;;0.70;100.00
6204;BME280;3135;42.602;23.468;2023-02-12T14:40:43;94115.06;;;0.77;100.00
6204;BME280;3135;42.602;23.468;2023-02-12T14:43:32;94124.59;;;0.85;100.00
6204;BME280;3135;42.602;23.468;2023-02-12T14:52:05;94130.28;;;0.88;100.00
6204;BME280;3135;42.602;23.468;2023-02-12T14:54:20;94128.50;;;0.95;100.00
6204;BME280;3135;42.602;23.468;2023-02-12T14:56:51;94135.00;;;1.13;100.00
6204;BME280;3135;42.602;23.468;2023-02-12T14:59:22;94137.41;;;1.08;100.00
6204;BME280;3135;42.602;23.468;2023-02-12T15:01:49;94142.28;;;1.04;100.00
6204;BME280;3135;42.602;23.468;2023-02-12T15:04:27;94147.47;;;0.84;100.00
6204;BME280;3135;42.602;23.468;2023-02-12T15:07:20;94165.13;;;0.97;100.00
6204;BME280;3135;42.602;23.468;2023-02-12T15:09:49;94161.91;;;1.01;100.00
6204;BME280;3135;42.602;23.468;2023-02-12T15:12:20;94166.59;;;1.13;100.00
6204;BME280;3135;42.602;23.468;2023-02-12T15:15:05;94159.44;;;0.87;100.00
6204;BME280;3135;42.602;23.468;2023-02-12T15:17:39;94161.44;;;0.85;100.00
6204;BME280;3135;42.602;23.468;2023-02-12T15:20:20;94171.56;;;0.88;100.00
6204;BME280;3135;42.602;23.468;2023-02-12T15:22:47;94159.84;;;0.90;100.00
6204;BME280;3135;42.602;23.468;2023-02-12T15:25:29;94187.06;;;1.17;100.00
6204;BME280;3135;42.602;23.468;2023-02-12T15:28:21;94200.47;;;1.22;100.00
6204;BME280;3135;42.602;23.468;2023-02-12T15:30:48;94196.03;;;1.23;100.00
6204;BME280;3135;42.602;23.468;2023-02-12T15:33:26;94203.72;;;1.18;100.00
6204;BME280;3135;42.602;23.468;2023-02-12T15:35:52;94193.50;;;1.01;100.00